createdAt,value
2018-03-16T00:00:32.512Z,40.93
2018-03-16T00:03:06.163Z,41.40
2018-03-16T00:05:39.768Z,42.83
2018-03-16T00:08:12.321Z,44.13
2018-03-16T00:10:45.110Z,45.67
2018-03-16T00:13:17.621Z,48.67
2018-03-16T00:15:50.431Z,42.27
2018-03-16T00:18:23.401Z,50.90
2018-03-16T00:20:56.205Z,48.13
2018-03-16T00:23:29.594Z,45.53
2018-03-16T00:26:02.579Z,45.60
2018-03-16T00:28:35.196Z,47.67
2018-03-16T00:31:07.962Z,46.97
2018-03-16T00:33:40.866Z,46.17
2018-03-16T00:36:13.660Z,46.30
2018-03-16T00:38:46.987Z,49.73
2018-03-16T00:41:19.788Z,49.67
2018-03-16T00:43:52.389Z,54.00
2018-03-16T00:46:25.787Z,53.37
2018-03-16T00:48:58.432Z,50.90
2018-03-16T00:51:31.097Z,54.07
2018-03-16T00:54:04.302Z,47.67
2018-03-16T00:56:38.108Z,51.97
2018-03-16T00:59:10.614Z,50.70
2018-03-16T01:01:44.084Z,54.70
2018-03-16T01:04:17.222Z,55.70
2018-03-16T01:06:50.078Z,50.53
2018-03-16T01:09:22.936Z,49.27
2018-03-16T01:11:57.462Z,50.57
2018-03-16T01:14:30.309Z,50.07
2018-03-16T01:17:02.944Z,49.77
2018-03-16T01:19:35.611Z,53.93
2018-03-16T01:22:08.270Z,49.87
2018-03-16T01:24:41.028Z,54.13
2018-03-16T01:27:13.952Z,47.67
2018-03-16T01:29:46.732Z,54.53
2018-03-16T01:32:19.432Z,59.77
2018-03-16T01:34:52.091Z,51.47
2018-03-16T01:37:24.836Z,49.57
2018-03-16T01:39:58.067Z,52.83
2018-03-16T01:42:30.676Z,58.43
2018-03-16T01:45:03.391Z,58.17
2018-03-16T01:47:36.753Z,62.13
2018-03-16T01:50:09.702Z,63.27
2018-03-16T01:52:42.693Z,67.33
2018-03-16T01:55:15.312Z,63.30
2018-03-16T01:57:48.018Z,65.47
2018-03-16T02:00:20.736Z,69.93
2018-03-16T02:02:53.611Z,67.40
2018-03-16T02:05:26.468Z,72.20
2018-03-16T02:07:59.078Z,65.20
2018-03-16T02:10:31.772Z,76.50
2018-03-16T02:13:04.332Z,73.57
2018-03-16T02:15:37.183Z,76.97
2018-03-16T02:18:10.405Z,84.40
2018-03-16T02:20:43.903Z,79.30
2018-03-16T02:23:16.583Z,67.13
2018-03-16T02:25:49.562Z,75.40
2018-03-16T02:28:22.455Z,79.90
2018-03-16T02:30:56.159Z,78.43
2018-03-16T02:33:29.873Z,80.50
2018-03-16T02:36:02.728Z,67.47
2018-03-16T02:38:35.302Z,78.97
2018-03-16T02:41:08.719Z,80.30
2018-03-16T02:43:42.113Z,78.93
2018-03-16T02:46:15.011Z,80.67
2018-03-16T02:48:48.602Z,87.13
2018-03-16T02:51:21.792Z,77.93
2018-03-16T02:53:54.785Z,77.80
2018-03-16T02:56:28.069Z,83.87
2018-03-16T02:59:00.944Z,80.03
2018-03-16T03:01:34.509Z,84.87
2018-03-16T03:04:07.545Z,74.63
2018-03-16T03:06:40.808Z,84.53
2018-03-16T03:09:13.517Z,79.10
2018-03-16T03:11:46.098Z,81.17
2018-03-16T03:14:19.533Z,80.73
2018-03-16T03:16:52.376Z,88.83
2018-03-16T03:19:25.972Z,82.17
2018-03-16T03:21:59.474Z,82.00
2018-03-16T03:24:32.072Z,80.60
2018-03-16T03:27:04.732Z,80.63
2018-03-16T03:29:37.717Z,82.63
2018-03-16T03:32:10.485Z,88.60
2018-03-16T03:34:44.112Z,83.90
2018-03-16T03:37:16.812Z,73.97
2018-03-16T03:39:49.987Z,79.33
2018-03-16T03:42:22.572Z,75.87
2018-03-16T03:44:55.478Z,84.07
2018-03-16T03:47:28.316Z,75.80
2018-03-16T03:50:01.014Z,79.90
2018-03-16T03:52:33.777Z,80.50
2018-03-16T03:55:06.663Z,81.90
2018-03-16T03:57:39.240Z,77.10
2018-03-16T04:00:12.126Z,72.77
2018-03-16T04:02:45.900Z,68.70
2018-03-16T04:05:18.702Z,72.53
2018-03-16T04:07:51.204Z,70.33
2018-03-16T04:10:24.508Z,60.10
2018-03-16T04:12:57.088Z,70.13
2018-03-16T04:15:30.766Z,75.77
2018-03-16T04:18:03.207Z,80.10
2018-03-16T04:20:36.102Z,79.77
2018-03-16T04:23:08.812Z,78.07
2018-03-16T04:25:41.894Z,70.13
2018-03-16T04:28:14.811Z,71.37
2018-03-16T04:30:48.484Z,71.27
2018-03-16T04:33:22.128Z,74.43
2018-03-16T04:35:55.114Z,68.90
2018-03-16T04:38:27.858Z,72.93
2018-03-16T04:41:01.355Z,65.47
2018-03-16T04:43:34.686Z,62.97
2018-03-16T04:46:08.083Z,66.30
2018-03-16T04:48:41.529Z,64.83
2018-03-16T04:51:14.134Z,58.37
2018-03-16T04:53:47.708Z,66.93
2018-03-16T04:56:21.713Z,55.77
2018-03-16T04:58:54.603Z,64.77
2018-03-16T05:01:27.407Z,54.93
2018-03-16T05:04:00.919Z,59.17
2018-03-16T05:06:33.766Z,57.60
2018-03-16T05:09:07.066Z,54.17
2018-03-16T05:11:40.403Z,57.90
2018-03-16T05:14:13.063Z,56.30
2018-03-16T05:16:45.660Z,53.53
2018-03-16T05:19:19.009Z,57.17
2018-03-16T05:21:52.009Z,52.00
2018-03-16T05:24:24.826Z,56.40
2018-03-16T05:26:57.500Z,58.17
2018-03-16T05:29:30.254Z,53.03
2018-03-16T05:32:02.825Z,57.20
2018-03-16T05:34:35.703Z,48.27
2018-03-16T05:37:08.584Z,53.87
2018-03-16T05:39:41.269Z,53.00
2018-03-16T05:42:14.250Z,49.03
2018-03-16T05:44:46.999Z,50.40
2018-03-16T05:47:19.738Z,49.77
2018-03-16T05:49:52.597Z,61.33
2018-03-16T05:52:25.513Z,51.77
2018-03-16T05:54:58.152Z,45.23
2018-03-16T05:57:31.149Z,47.60
2018-03-16T06:00:04.040Z,50.87
2018-03-16T06:02:36.667Z,52.23
2018-03-16T06:05:09.718Z,46.87
2018-03-16T06:07:42.529Z,48.47
2018-03-16T06:10:15.139Z,47.97
2018-03-16T06:12:48.607Z,52.60
2018-03-16T06:15:21.189Z,47.13
2018-03-16T06:17:54.430Z,44.40
2018-03-16T06:20:27.226Z,44.63
2018-03-16T06:22:59.812Z,48.07
2018-03-16T06:25:33.608Z,51.10
2018-03-16T06:28:06.999Z,51.93
2018-03-16T06:30:40.270Z,52.57
2018-03-16T06:33:14.449Z,56.80
2018-03-16T06:35:46.958Z,43.43
2018-03-16T06:38:19.860Z,50.57
2018-03-16T06:40:52.810Z,46.83
2018-03-16T06:43:26.758Z,51.60
2018-03-16T06:45:59.450Z,50.93
2018-03-16T06:48:32.053Z,48.33
2018-03-16T06:51:05.199Z,48.27
2018-03-16T06:53:37.738Z,47.27
2018-03-16T06:56:10.564Z,50.07
2018-03-16T06:58:43.835Z,46.53
2018-03-16T07:01:17.478Z,43.63
2018-03-16T07:03:50.098Z,53.07
2018-03-16T07:06:23.634Z,48.63
2018-03-16T07:08:57.274Z,51.67
2018-03-16T07:11:30.855Z,49.17
2018-03-16T07:14:03.539Z,56.50
2018-03-16T07:16:36.753Z,57.40
2018-03-16T07:19:09.607Z,53.00
2018-03-16T07:21:42.369Z,59.60
2018-03-16T07:24:15.286Z,56.23
2018-03-16T07:26:48.550Z,57.80
2018-03-16T07:29:21.624Z,53.73
2018-03-16T07:31:55.044Z,53.13
2018-03-16T07:34:27.771Z,47.70
2018-03-16T07:37:00.818Z,46.97
2018-03-16T07:39:33.488Z,54.40
2018-03-16T07:42:06.470Z,52.67
2018-03-16T07:44:40.008Z,48.70
2018-03-16T07:47:12.740Z,48.23
2018-03-16T07:49:45.434Z,46.50
2018-03-16T07:52:18.314Z,47.77
2018-03-16T07:54:51.637Z,41.60
2018-03-16T07:57:24.061Z,45.47
2018-03-16T07:59:57.070Z,39.67
2018-03-16T08:02:29.574Z,40.90
2018-03-16T08:05:02.064Z,44.83
2018-03-16T08:07:34.706Z,42.67
2018-03-16T08:10:08.310Z,42.60
2018-03-16T08:12:42.256Z,42.70
2018-03-16T08:15:15.674Z,38.23
2018-03-16T08:17:51.809Z,39.13
2018-03-16T08:20:25.362Z,35.83
2018-03-16T08:22:58.387Z,34.70
2018-03-16T08:25:31.959Z,40.90
2018-03-16T08:28:04.660Z,36.93
2018-03-16T08:30:37.341Z,39.40
2018-03-16T08:33:09.872Z,39.60
2018-03-16T08:35:43.076Z,36.00
2018-03-16T08:38:16.879Z,37.03
2018-03-16T08:40:50.749Z,41.57
2018-03-16T08:43:23.931Z,35.30
2018-03-16T08:45:56.640Z,41.37
2018-03-16T08:48:29.290Z,41.73
2018-03-16T08:51:01.839Z,40.03
2018-03-16T08:53:34.595Z,35.80
2018-03-16T08:56:06.999Z,35.77
2018-03-16T08:58:40.735Z,41.30
2018-03-16T09:01:13.270Z,40.63
2018-03-16T09:03:46.034Z,39.60
2018-03-16T09:06:20.144Z,34.73
2018-03-16T09:08:52.985Z,40.10
2018-03-16T09:11:25.709Z,38.37
2018-03-16T09:13:58.281Z,32.53
2018-03-16T09:16:30.880Z,36.87
2018-03-16T09:19:03.806Z,35.10
2018-03-16T09:21:37.970Z,38.13
2018-03-16T09:24:11.675Z,35.43
2018-03-16T09:26:44.309Z,31.77
2018-03-16T09:29:17.563Z,33.17
2018-03-16T09:31:50.628Z,30.43
2018-03-16T09:34:23.301Z,30.87
2018-03-16T09:36:56.755Z,29.30
2018-03-16T09:39:29.481Z,29.33
2018-03-16T09:42:02.165Z,26.67
2018-03-16T09:44:34.944Z,26.00
2018-03-16T09:47:09.157Z,25.13
2018-03-16T09:49:41.842Z,26.83
2018-03-16T09:52:14.599Z,23.60
2018-03-16T09:54:59.694Z,22.93
2018-03-16T09:57:34.094Z,22.40
2018-03-16T10:00:06.773Z,21.87
2018-03-16T10:02:39.678Z,23.60
2018-03-16T10:05:13.528Z,22.43
2018-03-16T10:07:46.420Z,22.77
2018-03-16T10:10:18.911Z,24.37
2018-03-16T10:12:51.415Z,19.97
2018-03-16T10:15:24.405Z,19.40
2018-03-16T10:17:58.106Z,21.77
2018-03-16T10:20:31.814Z,18.67
2018-03-16T10:23:04.322Z,17.00
2018-03-16T10:25:37.821Z,13.60
2018-03-16T10:28:10.720Z,16.10
2018-03-16T10:30:43.353Z,12.73
2018-03-16T10:33:16.211Z,13.13
2018-03-16T10:35:48.749Z,13.87
2018-03-16T10:38:27.740Z,14.70
2018-03-16T10:41:00.415Z,12.93
2018-03-16T10:43:33.203Z,13.77
2018-03-16T10:46:05.669Z,13.97
2018-03-16T10:48:38.554Z,12.23
2018-03-16T10:51:12.050Z,11.90
2018-03-16T10:53:44.464Z,11.97
2018-03-16T10:56:17.905Z,11.67
2018-03-16T10:58:50.607Z,12.80
2018-03-16T11:01:23.489Z,12.03
2018-03-16T11:03:56.271Z,11.67
2018-03-16T11:06:33.668Z,11.63
2018-03-16T11:09:06.959Z,10.93
2018-03-16T11:11:40.861Z,11.53
2018-03-16T11:14:14.258Z,12.63
2018-03-16T11:16:47.375Z,10.93
2018-03-16T11:19:20.131Z,12.93
2018-03-16T11:21:53.856Z,11.63
2018-03-16T11:24:27.018Z,10.63
2018-03-16T11:26:59.736Z,11.33
2018-03-16T11:29:32.790Z,10.90
2018-03-16T11:32:06.082Z,11.03
2018-03-16T11:34:39.279Z,10.47
2018-03-16T11:37:12.366Z,11.30
2018-03-16T11:39:45.011Z,10.77
2018-03-16T11:42:18.031Z,10.40
2018-03-16T11:44:50.925Z,11.50
2018-03-16T11:47:24.115Z,12.07
2018-03-16T11:49:56.864Z,11.97
2018-03-16T11:52:30.197Z,11.43
2018-03-16T11:55:02.816Z,13.53
2018-03-16T11:57:35.618Z,12.53
2018-03-16T12:00:08.382Z,12.57
2018-03-16T12:02:48.047Z,14.20
2018-03-16T12:05:20.955Z,11.60
2018-03-16T12:07:53.999Z,12.50
2018-03-16T12:10:28.035Z,11.53
2018-03-16T12:13:01.719Z,11.40
2018-03-16T12:15:34.461Z,10.97
2018-03-16T12:18:07.106Z,11.70
2018-03-16T12:20:39.849Z,12.90
2018-03-16T12:23:12.450Z,11.83
2018-03-16T12:25:45.389Z,13.23
2018-03-16T12:28:18.259Z,13.27
2018-03-16T12:30:51.589Z,12.17
2018-03-16T12:33:24.640Z,13.27
2018-03-16T12:35:57.611Z,14.60
2018-03-16T12:38:37.971Z,14.37
2018-03-16T12:41:10.740Z,14.33
2018-03-16T12:43:44.172Z,13.93
2018-03-16T12:46:17.955Z,13.33
2018-03-16T12:48:51.402Z,13.27
2018-03-16T12:51:25.063Z,14.13
2018-03-16T12:53:57.684Z,15.50
2018-03-16T12:56:30.342Z,15.00
2018-03-16T12:59:04.117Z,14.43
2018-03-16T13:01:37.913Z,15.53
2018-03-16T13:04:10.704Z,15.53
2018-03-16T13:06:43.546Z,15.23
2018-03-16T13:09:16.742Z,13.87
2018-03-16T13:11:49.601Z,14.50
2018-03-16T13:14:23.885Z,14.37
2018-03-16T13:16:56.970Z,12.97
2018-03-16T13:19:29.892Z,13.73
2018-03-16T13:22:02.669Z,13.73
2018-03-16T13:24:36.237Z,14.10
2018-03-16T13:27:09.531Z,13.23
2018-03-16T13:29:42.751Z,13.70
2018-03-16T13:32:16.256Z,13.87
2018-03-16T13:34:49.345Z,14.63
2018-03-16T13:37:22.396Z,13.53
2018-03-16T13:39:55.080Z,14.47
2018-03-16T13:42:28.087Z,13.83
2018-03-16T13:45:01.257Z,14.47
2018-03-16T13:47:34.452Z,14.93
2018-03-16T13:50:07.380Z,13.53
2018-03-16T13:52:40.015Z,14.60
2018-03-16T13:55:12.734Z,14.00
2018-03-16T13:57:46.626Z,15.03
2018-03-16T14:00:20.317Z,15.00
2018-03-16T14:02:54.628Z,14.47
2018-03-16T14:05:28.116Z,14.00
2018-03-16T14:08:01.331Z,14.63
2018-03-16T14:10:33.968Z,13.97
2018-03-16T14:13:06.981Z,14.43
2018-03-16T14:15:39.762Z,14.70
2018-03-16T14:18:20.286Z,14.73
2018-03-16T14:20:53.825Z,13.27
2018-03-16T14:23:31.538Z,13.17
2018-03-16T14:26:04.826Z,13.20
2018-03-16T14:28:37.515Z,14.27
2018-03-16T14:31:10.726Z,13.70
2018-03-16T14:33:43.531Z,14.50
2018-03-16T14:36:16.457Z,13.30
2018-03-16T14:38:49.356Z,12.50
2018-03-16T14:41:22.300Z,12.80
2018-03-16T14:43:55.316Z,12.57
2018-03-16T14:46:28.465Z,12.93
2018-03-16T14:49:02.167Z,12.43
2018-03-16T14:51:35.090Z,12.63
2018-03-16T14:54:07.861Z,12.63
2018-03-16T14:56:40.961Z,13.40
2018-03-16T14:59:14.465Z,13.30
2018-03-16T15:01:48.421Z,11.73
2018-03-16T15:04:21.356Z,12.57
2018-03-16T15:06:54.575Z,11.97
2018-03-16T15:09:27.315Z,12.70
2018-03-16T15:12:00.046Z,11.47
2018-03-16T15:14:33.015Z,12.67
2018-03-16T15:17:05.947Z,15.60
2018-03-16T15:19:38.976Z,13.40
2018-03-16T15:22:11.651Z,14.40
2018-03-16T15:24:44.692Z,13.40
2018-03-16T15:27:17.721Z,14.50
2018-03-16T15:29:50.638Z,14.30
2018-03-16T15:32:23.560Z,12.97
2018-03-16T15:34:56.160Z,13.10
2018-03-16T15:37:28.996Z,13.80
2018-03-16T15:40:01.780Z,13.50
2018-03-16T15:42:34.837Z,13.43
2018-03-16T15:45:08.447Z,12.77
2018-03-16T15:47:41.213Z,13.37
2018-03-16T15:50:13.911Z,13.07
2018-03-16T15:52:46.652Z,12.43
2018-03-16T15:55:20.166Z,14.00
2018-03-16T15:57:52.884Z,13.63
2018-03-16T16:00:25.471Z,13.03
2018-03-16T16:02:58.385Z,10.90
2018-03-16T16:05:31.911Z,12.60
2018-03-16T16:08:04.891Z,13.37
2018-03-16T16:10:37.676Z,12.40
2018-03-16T16:13:10.674Z,12.13
2018-03-16T16:15:44.980Z,11.43
2018-03-16T16:18:17.925Z,13.63
2018-03-16T16:20:51.325Z,13.27
2018-03-16T16:23:24.200Z,13.20
2018-03-16T16:25:56.722Z,13.10
2018-03-16T16:28:30.424Z,12.00
2018-03-16T16:31:04.054Z,13.50
2018-03-16T16:33:37.930Z,12.13
2018-03-16T16:36:17.636Z,12.30
2018-03-16T16:38:50.371Z,11.87
2018-03-16T16:41:23.466Z,12.00
2018-03-16T16:43:56.643Z,11.50
2018-03-16T16:46:29.327Z,11.23
2018-03-16T16:49:03.435Z,10.90
2018-03-16T16:51:36.102Z,10.57
2018-03-16T16:54:08.923Z,11.20
2018-03-16T16:56:41.675Z,12.67
2018-03-16T16:59:15.388Z,10.77
2018-03-16T17:02:10.087Z,11.10
2018-03-16T17:04:42.872Z,11.27
2018-03-16T17:07:15.536Z,10.97
2018-03-16T17:09:48.252Z,10.83
2018-03-16T17:12:21.026Z,11.30
2018-03-16T17:14:54.364Z,11.80
2018-03-16T17:17:27.277Z,11.27
2018-03-16T17:20:00.311Z,10.60
2018-03-16T17:22:32.945Z,10.10
2018-03-16T17:25:06.450Z,11.27
2018-03-16T17:27:39.043Z,11.10
2018-03-16T17:30:12.106Z,12.03
2018-03-16T17:32:44.784Z,11.90
2018-03-16T17:35:17.451Z,12.50
2018-03-16T17:37:50.274Z,11.57
2018-03-16T17:40:23.341Z,12.20
2018-03-16T17:42:56.332Z,12.00
2018-03-16T17:45:29.623Z,11.00
2018-03-16T17:48:03.105Z,13.27
2018-03-16T17:50:35.697Z,12.97
2018-03-16T17:53:08.881Z,12.57
2018-03-16T17:55:43.341Z,12.50
2018-03-16T17:58:16.192Z,17.50
2018-03-16T18:00:49.153Z,13.23
2018-03-16T18:03:22.203Z,12.53
2018-03-16T18:05:55.147Z,13.97
2018-03-16T18:08:28.448Z,14.07
2018-03-16T18:11:02.257Z,16.05
2018-03-16T18:13:29.767Z,13.27
2018-03-16T18:15:57.218Z,13.67
2018-03-16T18:18:24.212Z,15.37
2018-03-16T18:20:50.724Z,14.17
2018-03-16T18:23:17.488Z,15.37
2018-03-16T18:25:44.060Z,14.80
2018-03-16T18:28:10.572Z,15.57
2018-03-16T18:30:36.916Z,14.97
2018-03-16T18:33:03.602Z,16.03
2018-03-16T18:35:30.728Z,17.40
2018-03-16T18:37:57.047Z,16.17
2018-03-16T18:40:23.426Z,18.07
2018-03-16T18:42:50.577Z,15.80
2018-03-16T18:45:16.976Z,16.73
2018-03-16T18:47:44.199Z,16.20
2018-03-16T18:50:10.556Z,17.03
2018-03-16T18:52:37.713Z,15.97
2018-03-16T18:55:04.978Z,16.30
2018-03-16T18:57:33.233Z,17.70
2018-03-16T19:00:01.217Z,15.97
2018-03-16T19:02:28.529Z,16.73
2018-03-16T19:04:54.947Z,17.80
2018-03-16T19:07:22.143Z,18.83
2018-03-16T19:09:48.601Z,18.27
2018-03-16T19:12:14.939Z,17.37
2018-03-16T19:14:42.612Z,18.23
2018-03-16T19:17:09.113Z,17.83
2018-03-16T19:19:36.313Z,19.30
2018-03-16T19:22:02.796Z,18.40
2018-03-16T19:24:30.103Z,18.43
2018-03-16T19:26:56.492Z,18.07
2018-03-16T19:29:23.667Z,18.30
2018-03-16T19:31:50.318Z,16.27
2018-03-16T19:34:16.680Z,15.97
2018-03-16T19:36:43.256Z,17.57
2018-03-16T19:39:10.801Z,16.20
2018-03-16T19:41:38.318Z,17.77
2018-03-16T19:44:05.004Z,16.53
2018-03-16T19:46:31.544Z,15.93
2018-03-16T19:48:58.144Z,16.57
2018-03-16T19:51:24.542Z,13.77
2018-03-16T19:53:52.505Z,13.97
2018-03-16T19:56:18.853Z,13.73
2018-03-16T19:58:45.991Z,15.07
2018-03-16T20:01:12.346Z,16.67
2018-03-16T20:03:38.742Z,13.83
2018-03-16T20:06:05.063Z,12.97
2018-03-16T20:08:31.548Z,14.87
2018-03-16T20:10:58.088Z,13.57
2018-03-16T20:13:24.641Z,15.07
2018-03-16T20:15:51.143Z,14.93
2018-03-16T20:18:23.725Z,14.13
2018-03-16T20:20:57.980Z,13.03
2018-03-16T20:23:31.447Z,11.87
2018-03-16T20:26:04.602Z,13.47
2018-03-16T20:28:37.313Z,12.80
2018-03-16T20:31:09.812Z,11.80
2018-03-16T20:33:42.694Z,12.97
2018-03-16T20:36:16.277Z,11.67
2018-03-16T20:38:49.045Z,14.20
2018-03-16T20:41:21.599Z,11.27
2018-03-16T20:43:54.058Z,11.90
2018-03-16T20:46:27.482Z,12.17
2018-03-16T20:49:00.161Z,12.10
2018-03-16T20:51:32.757Z,10.80
2018-03-16T20:54:05.320Z,11.90
2018-03-16T20:56:38.301Z,11.50
2018-03-16T20:59:11.047Z,12.03
2018-03-16T21:01:44.631Z,10.93
2018-03-16T21:04:17.458Z,13.33
2018-03-16T21:06:50.156Z,11.73
2018-03-16T21:09:22.734Z,12.43
2018-03-16T21:11:56.210Z,11.33
2018-03-16T21:14:29.533Z,11.90
2018-03-16T21:17:02.806Z,10.67
2018-03-16T21:19:36.080Z,11.07
2018-03-16T21:22:08.771Z,13.23
2018-03-16T21:24:41.949Z,11.93
2018-03-16T21:27:14.317Z,13.20
2018-03-16T21:29:47.856Z,12.40
2018-03-16T21:32:21.134Z,11.30
2018-03-16T21:34:54.452Z,11.73
2018-03-16T21:37:27.819Z,10.43
2018-03-16T21:40:02.552Z,11.33
2018-03-16T21:42:36.554Z,11.53
2018-03-16T21:45:09.337Z,11.70
2018-03-16T21:47:41.937Z,10.10
2018-03-16T21:50:14.493Z,12.43
2018-03-16T21:52:47.092Z,11.60
2018-03-16T21:55:20.414Z,10.83
2018-03-16T21:57:53.802Z,11.60
2018-03-16T22:00:26.344Z,12.33
2018-03-16T22:02:58.996Z,13.00
2018-03-16T22:05:31.953Z,11.87
2018-03-16T22:08:05.452Z,12.00
2018-03-16T22:10:38.018Z,13.20
2018-03-16T22:13:10.661Z,11.30
2018-03-16T22:15:43.153Z,11.50
2018-03-16T22:18:15.792Z,10.37
2018-03-16T22:20:48.261Z,12.30
2018-03-16T22:23:21.118Z,11.63
2018-03-16T22:25:53.643Z,12.87
2018-03-16T22:28:26.485Z,13.13
2018-03-16T22:31:00.418Z,12.23
2018-03-16T22:33:32.808Z,11.30
2018-03-16T22:36:05.248Z,10.23
2018-03-16T22:38:37.997Z,13.03
2018-03-16T22:41:10.395Z,10.70
2018-03-16T22:43:42.883Z,9.83
2018-03-16T22:46:15.481Z,10.40
2018-03-16T22:48:48.570Z,11.53
2018-03-16T22:51:21.026Z,11.73
2018-03-16T22:53:53.824Z,12.10
2018-03-16T22:56:26.303Z,12.13
2018-03-16T22:58:59.477Z,11.90
2018-03-16T23:01:32.036Z,10.17
2018-03-16T23:04:04.703Z,10.30
2018-03-16T23:06:37.363Z,10.87
2018-03-16T23:09:10.094Z,10.07
2018-03-16T23:11:42.978Z,10.37
2018-03-16T23:14:15.538Z,11.77
2018-03-16T23:16:48.063Z,10.50
2018-03-16T23:19:20.659Z,9.80
2018-03-16T23:21:53.246Z,11.60
2018-03-16T23:24:25.876Z,10.07
2018-03-16T23:26:58.953Z,9.93
2018-03-16T23:29:32.002Z,10.50
2018-03-16T23:32:05.346Z,9.93
2018-03-16T23:34:37.860Z,10.00
2018-03-16T23:37:10.309Z,9.70
2018-03-16T23:39:42.673Z,11.00
2018-03-16T23:42:15.041Z,10.60
2018-03-16T23:44:47.756Z,10.27
2018-03-16T23:47:20.124Z,11.57
2018-03-16T23:49:52.556Z,10.37
2018-03-16T23:52:25.789Z,10.63
2018-03-16T23:54:58.242Z,9.90
2018-03-16T23:57:30.826Z,12.97
